createdAt,value
2019-03-01T00:00:23.903Z,4.40
2019-03-01T00:01:33.633Z,5.50
2019-03-01T00:02:41.899Z,6.20
2019-03-01T00:04:00.172Z,13.20
2019-03-01T00:05:49.284Z,4.67
2019-03-01T00:07:37.172Z,15.60
2019-03-01T00:09:17.719Z,8.10
2019-03-01T00:10:33.447Z,20.17
2019-03-01T00:11:57.487Z,6.67
2019-03-01T00:13:53.991Z,9.67
2019-03-01T00:15:32.823Z,12.83
2019-03-01T00:17:15.379Z,8.53
2019-03-01T00:19:07.249Z,6.43
2019-03-01T00:20:49.296Z,7.87
2019-03-01T00:22:39.448Z,16.97
2019-03-01T00:24:00.622Z,8.43
2019-03-01T00:25:24.696Z,7.90
2019-03-01T00:27:01.881Z,7.30
2019-03-01T00:28:20.050Z,6.13
2019-03-01T00:29:53.452Z,7.30
2019-03-01T00:31:11.975Z,13.37
2019-03-01T00:32:33.119Z,15.00
2019-03-01T00:33:57.622Z,8.23
2019-03-01T00:35:38.797Z,12.17
2019-03-01T00:37:36.500Z,6.60
2019-03-01T00:39:14.619Z,7.63
2019-03-01T00:40:38.678Z,8.27
2019-03-01T00:42:10.494Z,7.73
2019-03-01T00:43:31.920Z,7.73
2019-03-01T00:44:43.187Z,9.03
2019-03-01T00:45:51.198Z,13.47
2019-03-01T00:46:59.676Z,18.93
2019-03-01T00:48:07.603Z,13.10
2019-03-01T00:49:15.713Z,8.33
2019-03-01T00:50:23.965Z,8.70
2019-03-01T00:51:32.243Z,8.53
2019-03-01T00:52:40.447Z,8.30
2019-03-01T00:53:48.657Z,9.23
2019-03-01T00:54:56.687Z,17.97
2019-03-01T00:56:06.174Z,15.23
2019-03-01T00:57:14.474Z,8.67
2019-03-01T00:58:22.681Z,9.50
2019-03-01T00:59:30.872Z,8.73
2019-03-01T01:00:46.205Z,6.53
2019-03-01T01:01:54.444Z,14.80
2019-03-01T01:03:03.452Z,14.87
2019-03-01T01:04:11.765Z,8.67
2019-03-01T01:05:19.961Z,7.93
2019-03-01T01:06:28.159Z,6.97
2019-03-01T01:07:36.473Z,7.07
2019-03-01T01:08:44.674Z,7.33
2019-03-01T01:12:50.021Z,10.27
2019-03-01T01:13:58.296Z,15.70
2019-03-01T01:15:07.848Z,15.43
2019-03-01T01:16:15.927Z,6.17
2019-03-01T01:17:24.072Z,6.27
2019-03-01T01:18:32.427Z,8.13
2019-03-01T01:19:40.415Z,5.23
2019-03-01T01:20:48.637Z,6.93
2019-03-01T01:21:58.059Z,15.23
2019-03-01T01:23:06.353Z,15.97
2019-03-01T01:24:14.653Z,7.73
2019-03-01T01:25:22.851Z,6.07
2019-03-01T01:26:30.949Z,5.20
2019-03-01T01:27:38.949Z,8.53
2019-03-01T01:28:47.000Z,7.10
2019-03-01T01:29:55.162Z,13.70
2019-03-01T01:31:03.130Z,15.73
2019-03-01T01:32:11.118Z,9.67
2019-03-01T01:33:19.213Z,6.77
2019-03-01T01:34:27.167Z,6.00
2019-03-01T01:35:35.554Z,8.03
2019-03-01T01:36:43.543Z,4.47
2019-03-01T01:37:51.573Z,6.93
2019-03-01T01:38:59.524Z,15.90
2019-03-01T01:40:10.872Z,15.73
2019-03-01T01:41:18.973Z,18.33
2019-03-01T01:42:27.019Z,7.30
2019-03-01T01:43:35.113Z,6.47
2019-03-01T01:44:43.082Z,6.93
2019-03-01T01:45:51.763Z,6.07
2019-03-01T01:46:59.966Z,18.40
2019-03-01T01:48:08.152Z,15.50
2019-03-01T01:49:16.289Z,6.50
2019-03-01T01:50:25.002Z,5.40
2019-03-01T01:51:33.079Z,5.97
2019-03-01T01:52:40.950Z,5.80
2019-03-01T01:53:49.196Z,5.33
2019-03-01T01:54:57.625Z,13.03
2019-03-01T01:56:05.719Z,17.37
2019-03-01T01:57:13.743Z,10.70
2019-03-01T01:58:22.095Z,9.50
2019-03-01T01:59:30.267Z,9.73
2019-03-01T02:00:39.149Z,31.70
2019-03-01T02:01:47.414Z,9.83
2019-03-01T02:02:55.794Z,14.27
2019-03-01T02:04:04.082Z,16.47
2019-03-01T02:05:12.235Z,29.47
2019-03-01T02:06:20.458Z,4.83
2019-03-01T02:07:28.811Z,7.40
2019-03-01T02:08:37.220Z,7.00
2019-03-01T02:09:45.237Z,6.47
2019-03-01T02:10:54.248Z,7.13
2019-03-01T02:12:03.036Z,14.90
2019-03-01T02:13:11.105Z,14.33
2019-03-01T02:14:19.419Z,6.80
2019-03-01T02:15:27.951Z,18.53
2019-03-01T02:16:36.061Z,7.77
2019-03-01T02:17:44.437Z,8.50
2019-03-01T02:18:57.836Z,6.83
2019-03-01T02:20:02.373Z,16.20
2019-03-01T02:21:10.538Z,16.43
2019-03-01T02:22:18.494Z,7.73
2019-03-01T02:23:26.490Z,6.47
2019-03-01T02:24:35.198Z,5.53
2019-03-01T02:25:44.786Z,5.60
2019-03-01T02:26:55.694Z,7.13
2019-03-01T02:28:03.655Z,13.40
2019-03-01T02:29:11.791Z,16.63
2019-03-01T02:30:24.724Z,5.43
2019-03-01T02:31:33.223Z,7.67
2019-03-01T02:32:44.409Z,7.50
2019-03-01T02:33:52.676Z,7.00
2019-03-01T02:35:00.764Z,12.77
2019-03-01T02:36:09.028Z,16.53
2019-03-01T02:37:16.951Z,10.33
2019-03-01T02:38:25.458Z,6.70
2019-03-01T02:39:33.648Z,8.77
2019-03-01T02:40:41.776Z,8.43
2019-03-01T02:41:49.853Z,17.47
2019-03-01T02:42:59.083Z,37.83
2019-03-01T02:44:07.365Z,102.27
2019-03-01T02:45:20.667Z,61.03
2019-03-01T02:46:28.806Z,20.50
2019-03-01T02:47:36.961Z,9.23
2019-03-01T02:48:45.152Z,6.97
2019-03-01T02:49:53.002Z,16.20
2019-03-01T02:51:01.070Z,9.77
2019-03-01T02:52:09.085Z,16.50
2019-03-01T02:53:17.363Z,12.60
2019-03-01T02:54:25.567Z,5.93
2019-03-01T02:55:33.533Z,28.40
2019-03-01T02:56:41.966Z,9.10
2019-03-01T02:57:50.387Z,6.67
2019-03-01T02:58:58.545Z,7.83
2019-03-01T03:00:13.939Z,15.73
2019-03-01T03:01:21.951Z,6.23
2019-03-01T03:02:29.868Z,5.53
2019-03-01T03:03:38.117Z,6.80
2019-03-01T03:04:46.301Z,7.23
2019-03-01T03:05:56.113Z,7.17
2019-03-01T03:07:17.665Z,14.17
2019-03-01T03:08:25.819Z,8.63
2019-03-01T03:09:34.148Z,6.13
2019-03-01T03:10:42.238Z,5.07
2019-03-01T03:11:50.244Z,6.60
2019-03-01T03:13:04.097Z,8.23
2019-03-01T03:14:12.187Z,14.90
2019-03-01T03:15:34.250Z,11.17
2019-03-01T03:16:43.292Z,7.20
2019-03-01T03:17:51.408Z,8.27
2019-03-01T03:18:59.607Z,7.07
2019-03-01T03:20:10.727Z,16.40
2019-03-01T03:21:18.701Z,11.20
2019-03-01T03:22:27.044Z,6.80
2019-03-01T03:23:35.484Z,14.70
2019-03-01T03:24:43.933Z,7.50
2019-03-01T03:25:52.336Z,9.67
2019-03-01T03:27:00.231Z,5.43
2019-03-01T03:28:08.248Z,15.83
2019-03-01T03:29:16.561Z,19.13
2019-03-01T03:30:24.571Z,8.60
2019-03-01T03:31:33.147Z,7.37
2019-03-01T03:32:41.536Z,10.20
2019-03-01T03:33:50.036Z,11.33
2019-03-01T03:34:58.357Z,22.20
2019-03-01T03:36:06.737Z,35.67
2019-03-01T03:37:15.252Z,45.37
2019-03-01T03:38:23.856Z,11.17
2019-03-01T03:39:31.819Z,14.93
2019-03-01T03:40:40.204Z,11.37
2019-03-01T03:41:48.676Z,18.60
2019-03-01T03:42:56.753Z,14.33
2019-03-01T03:44:04.927Z,43.43
2019-03-01T03:45:18.128Z,42.33
2019-03-01T03:46:26.243Z,74.13
2019-03-01T03:47:34.460Z,98.47
2019-03-01T03:48:42.700Z,116.80
2019-03-01T03:49:50.570Z,10.60
2019-03-01T03:50:58.580Z,8.07
2019-03-01T03:52:06.793Z,15.23
2019-03-01T03:53:14.758Z,16.43
2019-03-01T03:54:22.894Z,25.23
2019-03-01T03:55:31.162Z,11.97
2019-03-01T03:56:39.640Z,9.93
2019-03-01T03:57:48.253Z,11.23
2019-03-01T03:58:56.472Z,6.67
2019-03-01T04:00:06.394Z,7.87
2019-03-01T04:01:14.703Z,18.57
2019-03-01T04:02:22.844Z,12.43
2019-03-01T04:03:31.151Z,10.30
2019-03-01T04:04:39.346Z,8.87
2019-03-01T04:05:47.905Z,6.63
2019-03-01T04:06:56.331Z,9.43
2019-03-01T04:08:04.785Z,7.50
2019-03-01T04:09:12.959Z,19.33
2019-03-01T04:10:21.179Z,17.57
2019-03-01T04:11:29.427Z,9.07
2019-03-01T04:12:37.622Z,11.07
2019-03-01T04:13:45.560Z,9.97
2019-03-01T04:14:53.645Z,10.13
2019-03-01T04:16:01.660Z,11.13
2019-03-01T04:17:09.897Z,18.13
2019-03-01T04:18:18.457Z,21.83
2019-03-01T04:19:26.957Z,13.60
2019-03-01T04:20:35.049Z,16.77
2019-03-01T04:21:43.676Z,13.03
2019-03-01T04:22:52.152Z,17.13
2019-03-01T04:24:00.327Z,12.87
2019-03-01T04:25:09.018Z,27.60
2019-03-01T04:26:17.337Z,119.23
2019-03-01T04:27:25.751Z,107.57
2019-03-01T04:28:34.239Z,101.33
2019-03-01T04:29:42.238Z,93.33
2019-03-01T04:30:50.433Z,84.97
2019-03-01T04:31:58.750Z,59.23
2019-03-01T04:33:07.041Z,51.13
2019-03-01T04:34:15.088Z,46.83
2019-03-01T04:35:23.236Z,61.03
2019-03-01T04:36:31.424Z,70.37
2019-03-01T04:37:39.865Z,99.20
2019-03-01T04:38:47.945Z,94.73
2019-03-01T04:39:56.024Z,95.80
2019-03-01T04:41:04.440Z,102.83
2019-03-01T04:42:12.480Z,124.73
2019-03-01T04:43:20.836Z,34.53
2019-03-01T04:44:29.550Z,8.50
2019-03-01T04:45:38.053Z,10.20
2019-03-01T04:46:46.091Z,12.43
2019-03-01T04:47:54.349Z,8.90
2019-03-01T04:49:02.921Z,9.83
2019-03-01T04:50:13.205Z,17.60
2019-03-01T04:51:21.557Z,20.07
2019-03-01T04:52:32.540Z,8.40
2019-03-01T04:53:40.400Z,8.37
2019-03-01T04:54:49.222Z,8.23
2019-03-01T04:55:57.315Z,7.07
2019-03-01T04:57:05.471Z,7.07
2019-03-01T04:58:13.900Z,16.13
2019-03-01T04:59:22.000Z,23.27
2019-03-01T05:00:30.481Z,10.10
2019-03-01T05:01:38.839Z,8.40
2019-03-01T05:02:46.988Z,11.90
2019-03-01T05:03:55.533Z,13.30
2019-03-01T05:05:03.556Z,10.53
2019-03-01T05:06:11.699Z,17.37
2019-03-01T05:07:20.071Z,17.97
2019-03-01T05:08:28.195Z,10.33
2019-03-01T05:09:36.659Z,9.53
2019-03-01T05:10:44.841Z,9.00
2019-03-01T05:11:53.287Z,10.97
2019-03-01T05:13:01.528Z,16.90
2019-03-01T05:14:09.632Z,27.10
2019-03-01T05:15:23.326Z,28.70
2019-03-01T05:16:31.650Z,10.70
2019-03-01T05:17:39.619Z,12.77
2019-03-01T05:18:47.884Z,18.03
2019-03-01T05:19:56.063Z,15.27
2019-03-01T05:21:04.481Z,25.63
2019-03-01T05:22:12.413Z,27.13
2019-03-01T05:23:21.091Z,30.27
2019-03-01T05:24:29.439Z,24.17
2019-03-01T05:25:37.834Z,15.93
2019-03-01T05:26:45.954Z,20.20
2019-03-01T05:27:54.638Z,41.70
2019-03-01T05:29:03.057Z,43.73
2019-03-01T05:30:21.073Z,69.47
2019-03-01T05:31:29.401Z,51.33
2019-03-01T05:32:37.732Z,16.47
2019-03-01T05:33:45.986Z,45.73
2019-03-01T05:34:54.185Z,10.93
2019-03-01T05:36:02.383Z,8.70
2019-03-01T05:37:10.600Z,12.33
2019-03-01T05:38:21.706Z,28.73
2019-03-01T05:39:28.612Z,17.93
2019-03-01T05:40:36.776Z,22.60
2019-03-01T05:41:44.820Z,41.13
2019-03-01T05:42:53.572Z,20.67
2019-03-01T05:44:01.670Z,25.83
2019-03-01T05:45:13.903Z,29.63
2019-03-01T05:46:22.038Z,31.87
2019-03-01T05:47:30.770Z,36.00
2019-03-01T05:48:39.172Z,35.63
2019-03-01T05:49:47.428Z,32.00
2019-03-01T05:50:56.443Z,32.07
2019-03-01T05:52:05.998Z,83.23
2019-03-01T05:53:14.480Z,112.57
2019-03-01T05:54:22.871Z,116.43
2019-03-01T05:55:31.198Z,98.60
2019-03-01T05:56:39.283Z,79.77
2019-03-01T05:58:29.120Z,85.77
2019-03-01T05:59:37.552Z,93.33
2019-03-01T06:00:46.030Z,132.83
2019-03-01T06:02:04.872Z,65.63
2019-03-01T06:03:49.185Z,29.83
2019-03-01T06:04:59.778Z,85.53
2019-03-01T06:06:08.976Z,7.97
2019-03-01T06:07:53.180Z,53.23
2019-03-01T06:09:23.706Z,41.50
2019-03-01T06:10:41.937Z,57.53
2019-03-01T06:12:09.821Z,29.73
2019-03-01T06:14:06.135Z,34.53
2019-03-01T06:15:24.637Z,67.30
2019-03-01T06:16:45.623Z,81.70
2019-03-01T06:18:20.810Z,10.00
2019-03-01T06:19:36.366Z,21.00
2019-03-01T06:21:14.775Z,12.33
2019-03-01T06:22:38.552Z,26.07
2019-03-01T06:24:25.977Z,13.27
2019-03-01T06:26:07.861Z,11.83
2019-03-01T06:28:01.434Z,120.90
2019-03-01T06:29:28.765Z,74.67
2019-03-01T06:30:52.031Z,26.60
2019-03-01T06:32:31.681Z,59.93
2019-03-01T06:33:59.427Z,111.13
2019-03-01T06:35:17.094Z,8.00
2019-03-01T06:36:35.268Z,16.70
2019-03-01T06:37:56.293Z,12.70
2019-03-01T06:39:21.934Z,11.67
2019-03-01T06:41:16.897Z,17.87
2019-03-01T06:42:52.484Z,20.50
2019-03-01T06:44:16.695Z,46.97
2019-03-01T06:45:51.747Z,110.73
2019-03-01T06:47:07.411Z,11.27
2019-03-01T06:48:17.471Z,13.00
2019-03-01T06:49:27.327Z,15.77
2019-03-01T06:50:37.071Z,14.43
2019-03-01T06:51:45.955Z,11.07
2019-03-01T06:52:54.547Z,9.97
2019-03-01T06:54:03.003Z,13.90
2019-03-01T06:55:31.414Z,21.30
2019-03-01T06:56:39.730Z,12.73
2019-03-01T06:57:48.190Z,32.57
2019-03-01T06:58:57.139Z,113.70
2019-03-01T07:00:09.044Z,19.10
2019-03-01T07:01:17.602Z,34.27
2019-03-01T07:02:27.767Z,58.93
2019-03-01T07:03:36.372Z,100.13
2019-03-01T07:04:44.801Z,99.67
2019-03-01T07:06:02.932Z,117.03
2019-03-01T07:07:03.638Z,82.03
2019-03-01T07:08:12.085Z,81.17
2019-03-01T07:09:20.256Z,93.77
2019-03-01T07:10:28.437Z,125.50
2019-03-01T07:11:38.368Z,93.00
2019-03-01T07:12:47.095Z,31.63
2019-03-01T07:13:56.323Z,20.43
2019-03-01T07:15:11.410Z,22.70
2019-03-01T07:16:22.218Z,42.20
2019-03-01T07:17:31.167Z,77.63
2019-03-01T07:18:39.249Z,90.93
2019-03-01T07:19:48.039Z,24.13
2019-03-01T07:20:56.282Z,16.00
2019-03-01T07:22:04.567Z,24.50
2019-03-01T07:23:12.892Z,11.73
2019-03-01T07:24:21.506Z,19.90
2019-03-01T07:25:30.065Z,25.50
2019-03-01T07:26:38.518Z,50.40
2019-03-01T07:27:46.877Z,46.97
2019-03-01T07:28:54.826Z,34.40
2019-03-01T07:30:03.668Z,28.40
2019-03-01T07:31:12.343Z,24.60
2019-03-01T07:32:20.772Z,33.93
2019-03-01T07:33:29.235Z,43.80
2019-03-01T07:34:37.450Z,11.70
2019-03-01T07:35:46.394Z,7.97
2019-03-01T07:36:55.123Z,8.40
2019-03-01T07:38:03.179Z,9.87
2019-03-01T07:39:11.687Z,8.40
2019-03-01T07:40:19.721Z,13.07
2019-03-01T07:41:28.257Z,16.43
2019-03-01T07:42:36.273Z,10.33
2019-03-01T07:43:44.268Z,8.87
2019-03-01T07:44:52.519Z,8.60
2019-03-01T07:46:00.673Z,8.57
2019-03-01T07:47:08.949Z,10.20
2019-03-01T07:48:17.828Z,10.53
2019-03-01T07:49:26.334Z,14.77
2019-03-01T07:50:34.567Z,15.87
2019-03-01T07:51:43.202Z,8.43
2019-03-01T07:52:51.551Z,8.67
2019-03-01T07:53:59.777Z,8.70
2019-03-01T07:55:13.471Z,8.77
2019-03-01T07:56:22.033Z,13.47
2019-03-01T07:57:31.585Z,14.40
2019-03-01T07:58:40.050Z,7.10
2019-03-01T07:59:48.928Z,6.63
2019-03-01T08:01:00.815Z,10.10
2019-03-01T08:02:09.050Z,7.33
2019-03-01T08:03:17.573Z,6.40
2019-03-01T08:04:28.976Z,16.70
2019-03-01T08:05:39.550Z,13.17
2019-03-01T08:06:48.842Z,5.23
2019-03-01T08:07:56.616Z,6.80
2019-03-01T08:09:12.560Z,6.40
2019-03-01T08:10:22.558Z,11.77
2019-03-01T08:11:31.814Z,21.70
2019-03-01T08:12:42.394Z,5.40
2019-03-01T08:13:53.156Z,8.67
2019-03-01T08:15:04.112Z,6.63
2019-03-01T08:16:10.233Z,8.23
2019-03-01T08:17:18.301Z,7.73
2019-03-01T08:18:26.672Z,19.43
2019-03-01T08:19:35.141Z,35.43
2019-03-01T08:20:43.645Z,45.43
2019-03-01T08:21:52.714Z,85.90
2019-03-01T08:23:00.963Z,76.33
2019-03-01T08:24:11.099Z,90.73
2019-03-01T08:25:23.596Z,83.00
2019-03-01T08:26:30.814Z,21.23
2019-03-01T08:27:42.062Z,13.70
2019-03-01T08:28:49.491Z,8.80
2019-03-01T08:29:57.437Z,12.00
2019-03-01T08:31:05.786Z,9.30
2019-03-01T08:32:14.683Z,8.53
2019-03-01T08:33:22.821Z,15.17
2019-03-01T08:34:31.549Z,20.50
2019-03-01T08:35:40.454Z,23.23
2019-03-01T08:36:48.880Z,21.27
2019-03-01T08:37:57.308Z,15.93
2019-03-01T08:39:08.482Z,19.33
2019-03-01T08:40:21.045Z,14.67
2019-03-01T08:41:29.432Z,21.17
2019-03-01T08:42:37.734Z,15.37
2019-03-01T08:43:48.181Z,7.63
2019-03-01T08:44:58.147Z,10.00
2019-03-01T08:46:09.389Z,11.57
2019-03-01T08:47:23.459Z,13.33
2019-03-01T08:48:30.544Z,56.27
2019-03-01T08:49:37.635Z,96.00
2019-03-01T08:50:46.194Z,105.33
2019-03-01T08:51:54.289Z,123.43
2019-03-01T08:53:02.559Z,96.57
2019-03-01T08:54:10.752Z,110.30
2019-03-01T08:55:27.654Z,127.27
2019-03-01T08:56:35.973Z,142.60
2019-03-01T08:57:44.749Z,136.57
2019-03-01T08:58:53.301Z,153.80
2019-03-01T09:00:02.436Z,143.67
2019-03-01T09:01:14.865Z,126.20
2019-03-01T09:02:23.222Z,108.40
2019-03-01T09:03:50.635Z,112.33
2019-03-01T09:04:58.945Z,134.17
2019-03-01T09:06:07.366Z,135.03
2019-03-01T09:07:15.593Z,125.00
2019-03-01T09:08:23.767Z,101.40
2019-03-01T09:09:32.016Z,131.10
2019-03-01T09:10:40.707Z,144.63
2019-03-01T09:11:49.284Z,125.53
2019-03-01T09:12:57.478Z,77.10
2019-03-01T09:14:06.302Z,101.60
2019-03-01T09:15:16.206Z,68.03
2019-03-01T09:16:24.497Z,34.67
2019-03-01T09:17:32.951Z,27.70
2019-03-01T09:18:41.547Z,104.57
2019-03-01T09:19:50.155Z,84.40
2019-03-01T09:21:04.384Z,75.40
2019-03-01T09:22:10.267Z,65.63
2019-03-01T09:23:24.208Z,79.10
2019-03-01T09:24:29.206Z,96.47
2019-03-01T09:25:41.411Z,80.87
2019-03-01T09:26:51.704Z,73.83
2019-03-01T09:27:58.321Z,81.27
2019-03-01T09:29:06.713Z,36.07
2019-03-01T09:30:22.065Z,52.60
2019-03-01T09:31:30.783Z,17.87
2019-03-01T09:32:39.115Z,19.83
2019-03-01T09:33:47.193Z,6.87
2019-03-01T09:34:56.804Z,5.70
2019-03-01T09:36:09.728Z,9.07
2019-03-01T09:37:18.260Z,7.87
2019-03-01T09:38:26.734Z,9.40
2019-03-01T09:39:34.825Z,16.73
2019-03-01T09:40:43.081Z,13.57
2019-03-01T09:41:51.258Z,8.33
2019-03-01T09:43:01.031Z,9.53
2019-03-01T09:44:09.738Z,5.13
2019-03-01T09:45:19.351Z,6.53
2019-03-01T09:46:28.317Z,9.30
2019-03-01T09:47:36.901Z,16.00
2019-03-01T09:48:49.428Z,8.53
2019-03-01T09:49:56.544Z,7.47
2019-03-01T09:51:07.307Z,7.10
2019-03-01T09:52:16.399Z,5.87
2019-03-01T09:53:25.017Z,8.03
2019-03-01T09:54:33.170Z,16.17
2019-03-01T09:55:41.815Z,30.43
2019-03-01T09:56:50.708Z,7.97
2019-03-01T09:57:58.917Z,8.23
2019-03-01T09:59:07.321Z,9.17
2019-03-01T10:00:25.647Z,6.60
2019-03-01T10:01:34.152Z,13.13
2019-03-01T10:02:42.656Z,14.80
2019-03-01T10:03:51.875Z,7.27
2019-03-01T10:05:00.238Z,6.03
2019-03-01T10:06:08.340Z,11.77
2019-03-01T10:07:16.689Z,9.83
2019-03-01T10:08:25.103Z,7.63
2019-03-01T10:09:33.023Z,14.90
2019-03-01T10:10:41.119Z,14.37
2019-03-01T10:11:49.691Z,8.27
2019-03-01T10:12:57.799Z,9.57
2019-03-01T10:14:05.805Z,6.80
2019-03-01T10:15:14.751Z,5.07
2019-03-01T10:16:23.043Z,8.57
2019-03-01T10:17:31.530Z,11.23
2019-03-01T10:18:39.591Z,13.90
2019-03-01T10:19:48.544Z,9.53
2019-03-01T10:20:56.869Z,8.17
2019-03-01T10:22:05.167Z,9.77
2019-03-01T10:23:13.344Z,13.80
2019-03-01T10:24:21.985Z,9.10
2019-03-01T10:25:30.454Z,40.43
2019-03-01T10:26:39.150Z,42.97
2019-03-01T10:27:47.404Z,36.23
2019-03-01T10:28:55.642Z,9.90
2019-03-01T10:30:05.060Z,17.87
2019-03-01T10:31:13.482Z,6.80
2019-03-01T10:32:21.627Z,10.10
2019-03-01T10:33:29.784Z,10.50
2019-03-01T10:34:37.845Z,20.23
2019-03-01T10:35:46.306Z,15.83
2019-03-01T10:36:55.092Z,8.00
2019-03-01T10:38:03.441Z,10.97
2019-03-01T10:39:14.371Z,5.97
2019-03-01T10:40:24.992Z,10.70
2019-03-01T10:41:33.548Z,16.03
2019-03-01T10:42:41.712Z,19.70
2019-03-01T10:43:50.651Z,10.13
2019-03-01T10:44:58.591Z,11.27
2019-03-01T10:46:06.687Z,11.23
2019-03-01T10:47:14.767Z,13.67
2019-03-01T10:48:23.211Z,7.97
2019-03-01T10:49:31.673Z,13.43
2019-03-01T10:50:40.230Z,16.13
2019-03-01T10:51:48.352Z,15.13
2019-03-01T10:52:56.926Z,9.23
2019-03-01T10:54:05.274Z,7.10
2019-03-01T10:55:19.576Z,8.20
2019-03-01T10:56:27.772Z,7.03
2019-03-01T10:57:36.114Z,16.00
2019-03-01T10:58:44.530Z,17.57
2019-03-01T10:59:52.633Z,13.27
2019-03-01T11:01:01.129Z,8.60
2019-03-01T11:02:09.641Z,10.70
2019-03-01T11:03:17.815Z,8.37
2019-03-01T11:04:26.203Z,15.13
2019-03-01T11:05:35.003Z,12.47
2019-03-01T11:06:43.290Z,15.70
2019-03-01T11:07:54.727Z,10.23
2019-03-01T11:09:04.933Z,7.73
2019-03-01T11:10:23.011Z,7.83
2019-03-01T11:11:31.397Z,11.27
2019-03-01T11:12:39.665Z,18.70
2019-03-01T11:13:48.010Z,16.77
2019-03-01T11:14:56.434Z,12.13
2019-03-01T11:16:04.622Z,9.87
2019-03-01T11:17:12.818Z,6.33
2019-03-01T11:18:21.450Z,22.70
2019-03-01T11:19:29.699Z,12.07
2019-03-01T11:20:38.336Z,15.20
2019-03-01T11:21:46.997Z,16.33
2019-03-01T11:22:55.177Z,9.00
2019-03-01T11:24:03.254Z,9.50
2019-03-01T11:25:14.967Z,11.23
2019-03-01T11:26:23.189Z,9.87
2019-03-01T11:27:31.780Z,7.47
2019-03-01T11:28:40.212Z,14.27
2019-03-01T11:29:48.341Z,12.60
2019-03-01T11:30:56.590Z,7.27
2019-03-01T11:32:04.947Z,9.20
2019-03-01T11:33:13.121Z,7.57
2019-03-01T11:34:22.265Z,8.00
2019-03-01T11:35:31.149Z,12.43
2019-03-01T11:36:39.725Z,18.97
2019-03-01T11:37:48.264Z,20.30
2019-03-01T11:38:56.782Z,12.13
2019-03-01T11:40:07.603Z,23.53
2019-03-01T11:41:15.628Z,12.47
2019-03-01T11:42:24.471Z,7.57
2019-03-01T11:43:32.553Z,6.80
2019-03-01T11:44:41.179Z,15.13
2019-03-01T11:45:49.312Z,16.77
2019-03-01T11:46:57.676Z,11.57
2019-03-01T11:48:06.613Z,9.27
2019-03-01T11:49:14.794Z,9.97
2019-03-01T11:50:25.086Z,9.83
2019-03-01T11:51:33.552Z,11.40
2019-03-01T11:52:42.048Z,19.27
2019-03-01T11:53:50.351Z,18.97
2019-03-01T11:54:58.466Z,12.33
2019-03-01T11:56:07.060Z,7.43
2019-03-01T11:57:15.247Z,11.70
2019-03-01T11:58:23.929Z,11.03
2019-03-01T11:59:32.539Z,11.33
2019-03-01T12:00:40.917Z,19.40
2019-03-01T12:01:49.282Z,52.50
2019-03-01T12:02:57.364Z,110.90
2019-03-01T12:04:05.526Z,90.13
2019-03-01T12:05:14.646Z,43.97
2019-03-01T12:06:22.759Z,7.53
2019-03-01T12:07:31.428Z,8.77
2019-03-01T12:08:40.063Z,15.37
2019-03-01T12:09:48.620Z,25.17
2019-03-01T12:10:56.934Z,118.57
2019-03-01T12:12:05.535Z,131.97
2019-03-01T12:13:13.729Z,142.23
2019-03-01T12:14:22.426Z,126.67
2019-03-01T12:15:31.423Z,83.63
2019-03-01T12:16:40.189Z,15.47
2019-03-01T12:17:48.585Z,17.60
2019-03-01T12:18:56.677Z,29.13
2019-03-01T12:20:06.716Z,20.93
2019-03-01T12:21:15.395Z,24.40
2019-03-01T12:22:23.723Z,30.83
2019-03-01T12:23:31.974Z,20.97
2019-03-01T12:24:40.238Z,19.43
2019-03-01T12:25:48.366Z,18.60
2019-03-01T12:26:56.714Z,15.27
2019-03-01T12:28:05.303Z,9.63
2019-03-01T12:29:13.477Z,11.77
2019-03-01T12:30:26.725Z,9.47
2019-03-01T12:31:35.259Z,10.70
2019-03-01T12:32:43.631Z,18.70
2019-03-01T12:33:52.163Z,20.40
2019-03-01T12:35:00.295Z,9.10
2019-03-01T12:36:08.932Z,6.83
2019-03-01T12:37:16.920Z,9.57
2019-03-01T12:38:24.880Z,16.40
2019-03-01T12:39:32.832Z,7.13
2019-03-01T12:40:42.000Z,16.63
2019-03-01T12:41:50.147Z,16.33
2019-03-01T12:42:58.405Z,16.90
2019-03-01T12:44:06.916Z,10.87
2019-03-01T12:45:17.349Z,11.07
2019-03-01T12:46:25.734Z,10.13
2019-03-01T12:47:33.958Z,9.73
2019-03-01T12:48:42.025Z,15.77
2019-03-01T12:49:50.512Z,18.13
2019-03-01T12:50:58.508Z,29.03
2019-03-01T12:52:06.395Z,9.27
2019-03-01T12:53:14.494Z,8.13
2019-03-01T12:54:22.482Z,12.63
2019-03-01T12:55:31.931Z,16.23
2019-03-01T12:56:40.401Z,14.93
2019-03-01T12:57:49.010Z,18.20
2019-03-01T12:58:57.182Z,19.07
2019-03-01T13:00:23.706Z,12.40
2019-03-01T13:01:32.139Z,11.07
2019-03-01T13:02:40.381Z,13.80
2019-03-01T13:03:48.811Z,24.60
2019-03-01T13:04:57.119Z,26.27
2019-03-01T13:06:05.299Z,21.50
2019-03-01T13:07:14.034Z,96.13
2019-03-01T13:08:22.371Z,134.37
2019-03-01T13:09:30.836Z,155.67
2019-03-01T13:10:40.232Z,40.37
2019-03-01T13:11:51.326Z,36.10
2019-03-01T13:13:02.079Z,69.80
2019-03-01T13:14:09.409Z,92.80
2019-03-01T13:15:17.498Z,103.27
2019-03-01T13:16:26.554Z,111.57
2019-03-01T13:17:37.244Z,112.63
2019-03-01T13:18:47.684Z,138.27
2019-03-01T13:19:57.517Z,157.50
2019-03-01T13:21:05.664Z,157.07
2019-03-01T13:22:13.932Z,139.30
2019-03-01T13:23:22.030Z,121.13
2019-03-01T13:24:30.538Z,97.27
2019-03-01T13:25:38.663Z,78.67
2019-03-01T13:26:46.997Z,114.03
2019-03-01T13:27:55.010Z,87.30
2019-03-01T13:29:03.244Z,73.93
2019-03-01T13:30:17.905Z,25.10
2019-03-01T13:31:26.104Z,12.40
2019-03-01T13:32:34.378Z,24.57
2019-03-01T13:33:43.090Z,42.83
2019-03-01T13:34:51.520Z,30.27
2019-03-01T13:36:03.149Z,18.67
2019-03-01T13:37:15.174Z,9.17
2019-03-01T13:38:19.935Z,10.03
2019-03-01T13:39:28.280Z,11.10
2019-03-01T13:40:36.461Z,11.47
2019-03-01T13:41:45.079Z,14.43
2019-03-01T13:42:53.583Z,21.37
2019-03-01T13:44:04.120Z,14.60
2019-03-01T13:45:15.765Z,11.97
2019-03-01T13:46:26.385Z,13.67
2019-03-01T13:47:33.858Z,11.87
2019-03-01T13:48:42.061Z,15.27
2019-03-01T13:49:50.192Z,48.00
2019-03-01T13:50:58.512Z,31.27
2019-03-01T13:52:06.749Z,11.73
2019-03-01T13:53:15.436Z,11.50
2019-03-01T13:54:23.587Z,9.03
2019-03-01T13:55:31.759Z,10.77
2019-03-01T13:56:40.005Z,10.93
2019-03-01T13:57:50.050Z,19.33
2019-03-01T13:58:59.581Z,22.20
2019-03-01T14:00:17.374Z,8.33
2019-03-01T14:01:27.102Z,10.63
2019-03-01T14:02:35.601Z,6.47
2019-03-01T14:03:43.958Z,11.37
2019-03-01T14:04:52.308Z,21.77
2019-03-01T14:06:02.172Z,20.30
2019-03-01T14:07:10.499Z,9.30
2019-03-01T14:08:18.846Z,8.40
2019-03-01T14:09:28.066Z,10.00
2019-03-01T14:10:38.596Z,14.10
2019-03-01T14:11:46.331Z,14.30
2019-03-01T14:12:54.792Z,26.90
2019-03-01T14:14:02.942Z,19.50
2019-03-01T14:15:19.203Z,12.43
2019-03-01T14:16:27.425Z,11.83
2019-03-01T14:17:35.745Z,15.67
2019-03-01T14:18:44.120Z,11.33
2019-03-01T14:19:52.248Z,18.97
2019-03-01T14:21:00.671Z,20.40
2019-03-01T14:22:13.145Z,9.57
2019-03-01T14:23:21.309Z,14.07
2019-03-01T14:24:29.509Z,7.17
2019-03-01T14:25:41.704Z,10.13
2019-03-01T14:26:50.679Z,20.67
2019-03-01T14:28:02.207Z,23.13
2019-03-01T14:29:09.037Z,13.60
2019-03-01T14:30:25.365Z,10.93
2019-03-01T14:31:32.436Z,10.93
2019-03-01T14:32:40.463Z,10.07
2019-03-01T14:33:49.043Z,10.37
2019-03-01T14:34:57.317Z,21.50
2019-03-01T14:36:05.633Z,16.47
2019-03-01T14:37:15.162Z,13.67
2019-03-01T14:38:26.753Z,10.23
2019-03-01T14:39:33.918Z,12.37
2019-03-01T14:40:41.974Z,13.20
2019-03-01T14:41:50.406Z,17.13
2019-03-01T14:42:58.523Z,17.20
2019-03-01T14:44:06.959Z,18.00
2019-03-01T14:45:30.113Z,14.50
2019-03-01T14:46:38.666Z,10.50
2019-03-01T14:47:47.100Z,14.13
2019-03-01T14:48:55.334Z,22.47
2019-03-01T14:50:03.690Z,20.47
2019-03-01T14:51:11.952Z,7.00
2019-03-01T14:52:21.287Z,13.33
2019-03-01T14:53:31.208Z,28.33
2019-03-01T14:54:41.808Z,15.20
2019-03-01T14:56:06.536Z,11.87
2019-03-01T14:57:17.962Z,8.60
2019-03-01T14:58:45.684Z,9.50
2019-03-01T14:59:58.180Z,16.10
2019-03-01T15:01:38.116Z,15.97
2019-03-01T15:02:56.079Z,9.60
2019-03-01T15:04:04.760Z,18.87
2019-03-01T15:05:17.871Z,21.73
2019-03-01T15:06:23.115Z,10.03
2019-03-01T15:07:32.318Z,8.70
2019-03-01T15:08:44.123Z,18.67
2019-03-01T15:09:53.352Z,13.80
2019-03-01T15:11:04.461Z,20.63
2019-03-01T15:12:19.663Z,10.83
2019-03-01T15:13:24.268Z,15.00
2019-03-01T15:14:32.474Z,10.97
2019-03-01T15:15:40.873Z,11.33
2019-03-01T15:16:49.344Z,9.17
2019-03-01T15:17:57.907Z,18.27
2019-03-01T15:19:08.148Z,18.60
2019-03-01T15:20:23.154Z,14.33
2019-03-01T15:21:27.401Z,12.20
2019-03-01T15:22:35.864Z,9.40